createdAt,value
2023-02-11T00:01:31.253Z,16.17
2023-02-11T00:04:00.188Z,19.13
2023-02-11T00:06:30.500Z,18.88
2023-02-11T00:08:58.557Z,14.63
2023-02-11T00:11:30.937Z,17.38
2023-02-11T00:14:01.740Z,19.02
2023-02-11T00:16:32.236Z,15.80
2023-02-11T00:19:01.454Z,22.05
2023-02-11T00:21:29.587Z,20.08
2023-02-11T00:24:00.268Z,16.67
2023-02-11T00:26:31.932Z,15.48
2023-02-11T00:29:01.148Z,21.33
2023-02-11T00:31:29.759Z,17.90
2023-02-11T00:33:58.246Z,20.50
2023-02-11T00:36:29.256Z,17.30
2023-02-11T00:38:58.503Z,17.70
2023-02-11T00:41:27.683Z,17.23
2023-02-11T00:43:55.878Z,18.05
2023-02-11T00:46:24.444Z,16.88
2023-02-11T00:48:55.283Z,17.45
2023-02-11T00:51:23.460Z,21.20
2023-02-11T00:53:51.793Z,17.73
2023-02-11T00:56:20.423Z,18.48
2023-02-11T00:58:48.696Z,16.98
2023-02-11T01:01:18.255Z,13.45
2023-02-11T01:03:46.191Z,17.63
2023-02-11T01:06:14.535Z,18.60
2023-02-11T01:08:42.440Z,18.35
2023-02-11T01:11:18.121Z,21.67
2023-02-11T01:13:47.525Z,16.58
2023-02-11T01:16:17.375Z,16.23
2023-02-11T01:18:46.623Z,15.70
2023-02-11T01:21:15.412Z,14.25
2023-02-11T01:23:44.209Z,16.42
2023-02-11T01:26:13.270Z,18.17
2023-02-11T01:28:41.163Z,15.27
2023-02-11T01:31:09.221Z,14.57
2023-02-11T01:33:37.644Z,17.08
2023-02-11T01:36:08.267Z,14.52
2023-02-11T01:38:36.829Z,15.63
2023-02-11T01:41:10.665Z,15.35
2023-02-11T01:43:50.285Z,16.57
2023-02-11T01:46:25.300Z,15.60
2023-02-11T01:49:12.158Z,12.35
2023-02-11T01:51:48.972Z,14.98
2023-02-11T01:54:39.122Z,16.70
2023-02-11T01:57:23.601Z,12.30
2023-02-11T02:00:07.538Z,17.10
2023-02-11T02:03:03.467Z,18.50
2023-02-11T02:05:47.005Z,17.88
2023-02-11T02:08:32.438Z,15.32
2023-02-11T02:11:04.023Z,13.60
2023-02-11T02:13:34.151Z,16.05
2023-02-11T02:16:09.946Z,15.68
2023-02-11T02:18:43.768Z,15.45
2023-02-11T02:21:36.433Z,16.67
2023-02-11T02:24:22.541Z,13.33
2023-02-11T02:27:14.656Z,12.65
2023-02-11T02:30:39.538Z,18.45
2023-02-11T02:33:22.488Z,16.00
2023-02-11T02:36:12.066Z,16.02
2023-02-11T02:38:54.985Z,15.93
2023-02-11T02:41:33.979Z,20.58
2023-02-11T02:44:02.873Z,12.90
2023-02-11T02:46:34.101Z,13.05
2023-02-11T02:49:03.360Z,13.50
2023-02-11T02:51:57.076Z,13.00
2023-02-11T02:54:46.063Z,15.65
2023-02-11T02:57:46.603Z,15.85
2023-02-11T03:00:35.206Z,12.43
2023-02-11T03:03:49.821Z,12.40
2023-02-11T03:06:34.915Z,12.60
2023-02-11T03:09:12.203Z,12.48
2023-02-11T03:11:41.362Z,11.15
2023-02-11T03:14:16.053Z,12.55
2023-02-11T03:16:46.319Z,15.80
2023-02-11T03:19:20.515Z,16.47
2023-02-11T03:21:52.596Z,11.10
2023-02-11T03:24:30.403Z,13.13
2023-02-11T03:27:04.509Z,16.25
2023-02-11T03:29:41.050Z,14.30
2023-02-11T03:32:18.365Z,11.93
2023-02-11T03:35:04.252Z,11.95
2023-02-11T03:37:38.065Z,17.13
2023-02-11T03:40:19.570Z,16.23
2023-02-11T03:42:55.705Z,11.18
2023-02-11T03:45:25.859Z,13.10
2023-02-11T03:48:20.668Z,14.93
2023-02-11T03:50:50.831Z,14.20
2023-02-11T03:53:20.348Z,10.65
2023-02-11T03:55:50.646Z,13.35
2023-02-11T03:58:19.332Z,12.80
2023-02-11T04:00:47.498Z,17.10
2023-02-11T04:03:15.589Z,12.82
2023-02-11T04:05:43.565Z,16.00
2023-02-11T04:08:11.583Z,15.07
2023-02-11T04:10:39.566Z,19.07
2023-02-11T04:13:07.627Z,15.23
2023-02-11T04:15:35.645Z,14.32
2023-02-11T04:18:03.944Z,20.13
2023-02-11T04:20:31.748Z,13.63
2023-02-11T04:22:59.690Z,15.37
2023-02-11T04:25:28.044Z,16.80
2023-02-11T04:27:56.001Z,13.30
2023-02-11T04:30:23.902Z,14.27
2023-02-11T04:32:51.916Z,16.48
2023-02-11T04:35:19.776Z,14.43
2023-02-11T04:37:48.195Z,12.40
2023-02-11T04:40:16.080Z,14.88
2023-02-11T04:42:44.043Z,13.10
2023-02-11T04:45:11.820Z,16.80
2023-02-11T04:47:39.952Z,13.37
2023-02-11T04:50:07.790Z,12.20
2023-02-11T04:52:36.016Z,11.70
2023-02-11T04:55:03.837Z,14.93
2023-02-11T04:57:31.670Z,14.55
2023-02-11T04:59:59.697Z,15.63
2023-02-11T05:02:27.832Z,15.27
2023-02-11T05:04:55.761Z,12.18
2023-02-11T05:07:23.788Z,12.23
2023-02-11T05:09:51.760Z,11.70
2023-02-11T05:12:19.862Z,13.30
2023-02-11T05:14:47.895Z,12.80
2023-02-11T05:17:15.976Z,13.27
2023-02-11T05:19:44.125Z,11.38
2023-02-11T05:22:12.042Z,15.88
2023-02-11T05:24:40.146Z,15.73
2023-02-11T05:27:07.923Z,12.52
2023-02-11T05:29:35.935Z,12.82
2023-02-11T05:32:03.936Z,15.05
2023-02-11T05:34:32.030Z,11.73
2023-02-11T05:37:00.027Z,16.90
2023-02-11T05:39:29.688Z,11.23
2023-02-11T05:41:57.727Z,10.05
2023-02-11T05:44:25.959Z,16.02
2023-02-11T05:46:53.842Z,12.90
2023-02-11T05:49:21.813Z,12.23
2023-02-11T05:51:50.100Z,11.60
2023-02-11T05:54:18.176Z,12.07
2023-02-11T05:56:46.060Z,13.82
2023-02-11T05:59:19.716Z,11.10
2023-02-11T06:01:47.664Z,13.70
2023-02-11T06:04:15.421Z,12.95
2023-02-11T06:06:43.282Z,11.15
2023-02-11T06:09:12.458Z,12.73
2023-02-11T06:11:40.477Z,14.90
2023-02-11T06:14:08.380Z,15.23
2023-02-11T06:16:36.439Z,15.43
2023-02-11T06:19:04.505Z,10.98
2023-02-11T06:21:43.330Z,12.90
2023-02-11T06:24:13.030Z,12.40
2023-02-11T06:26:41.132Z,14.97
2023-02-11T06:29:09.287Z,14.00
2023-02-11T06:31:39.502Z,14.57
2023-02-11T06:34:09.168Z,13.05
2023-02-11T06:36:39.896Z,14.05
2023-02-11T06:39:08.331Z,12.93
2023-02-11T06:41:38.459Z,14.68
2023-02-11T06:44:06.553Z,19.08
2023-02-11T06:46:34.498Z,13.82
2023-02-11T06:49:02.886Z,13.63
2023-02-11T06:51:30.717Z,14.63
2023-02-11T06:53:58.535Z,13.80
2023-02-11T06:56:29.254Z,11.30
2023-02-11T06:58:57.895Z,14.27
2023-02-11T07:01:27.368Z,13.13
2023-02-11T07:03:55.823Z,14.70
2023-02-11T07:06:27.667Z,11.98
2023-02-11T07:08:56.495Z,11.77
2023-02-11T07:11:28.025Z,16.77
2023-02-11T07:14:00.227Z,15.77
2023-02-11T07:16:28.350Z,15.50
2023-02-11T07:18:56.162Z,14.00
2023-02-11T07:21:27.713Z,14.02
2023-02-11T07:23:56.014Z,14.18
2023-02-11T07:26:26.211Z,14.63
2023-02-11T07:28:55.188Z,16.07
2023-02-11T07:31:26.146Z,15.65
2023-02-11T07:33:56.229Z,13.25
2023-02-11T07:36:24.629Z,14.73
2023-02-11T07:38:52.656Z,15.45
2023-02-11T07:41:23.016Z,15.33
2023-02-11T07:43:51.398Z,13.10
2023-02-11T07:46:24.805Z,13.32
2023-02-11T07:48:53.673Z,13.52
2023-02-11T07:51:27.032Z,15.38
2023-02-11T07:53:56.092Z,16.67
2023-02-11T07:56:24.365Z,15.90
2023-02-11T07:58:52.188Z,13.82
2023-02-11T08:01:25.632Z,13.57
2023-02-11T08:03:54.312Z,16.38
2023-02-11T08:06:24.632Z,16.37
2023-02-11T08:08:53.238Z,14.23
2023-02-11T08:11:24.229Z,15.45
2023-02-11T08:13:52.959Z,10.85
2023-02-11T08:16:26.721Z,10.88
2023-02-11T08:18:57.998Z,13.03
2023-02-11T08:21:26.612Z,13.13
2023-02-11T08:23:54.718Z,15.60
2023-02-11T08:26:30.633Z,12.38
2023-02-11T08:28:59.113Z,12.25
2023-02-11T08:31:34.752Z,13.17
2023-02-11T08:34:03.199Z,13.60
2023-02-11T08:36:34.647Z,13.07
2023-02-11T08:39:17.906Z,12.60
2023-02-11T08:41:51.936Z,11.32
2023-02-11T08:44:21.755Z,12.20
2023-02-11T08:46:50.584Z,11.75
2023-02-11T08:49:18.796Z,13.98
2023-02-11T08:51:47.469Z,13.48
2023-02-11T08:54:16.749Z,12.90
2023-02-11T08:56:45.119Z,10.80
2023-02-11T08:59:18.110Z,11.55
2023-02-11T09:01:47.755Z,14.60
2023-02-11T09:04:15.817Z,12.65
2023-02-11T09:06:43.757Z,11.88
2023-02-11T09:09:14.233Z,11.73
2023-02-11T09:11:44.023Z,11.13
2023-02-11T09:14:23.773Z,12.07
2023-02-11T09:16:53.680Z,14.55
2023-02-11T09:19:23.558Z,15.63
2023-02-11T09:21:51.632Z,11.30
2023-02-11T09:24:19.744Z,13.65
2023-02-11T09:26:47.987Z,10.52
2023-02-11T09:29:15.755Z,11.48
2023-02-11T09:31:44.047Z,11.43
2023-02-11T09:34:13.032Z,12.13
2023-02-11T09:36:42.236Z,9.90
2023-02-11T09:39:14.157Z,11.63
2023-02-11T09:42:09.152Z,10.32
2023-02-11T09:44:41.054Z,11.88
2023-02-11T09:47:29.616Z,12.37
2023-02-11T09:50:13.868Z,10.13
2023-02-11T09:53:05.962Z,11.32
2023-02-11T09:55:47.030Z,10.15
2023-02-11T09:58:21.672Z,9.20
2023-02-11T10:00:52.801Z,8.30
2023-02-11T10:03:49.846Z,14.65
2023-02-11T10:06:39.069Z,9.73
2023-02-11T10:09:07.257Z,11.43
2023-02-11T10:11:37.798Z,10.23
2023-02-11T10:14:08.859Z,12.27
2023-02-11T10:16:55.071Z,8.63
2023-02-11T10:19:34.854Z,9.65
2023-02-11T10:22:08.707Z,12.13
2023-02-11T10:24:38.026Z,10.25
2023-02-11T10:27:19.955Z,12.97
2023-02-11T10:29:57.527Z,8.48
2023-02-11T10:32:38.471Z,12.07
2023-02-11T10:35:18.766Z,8.82
2023-02-11T10:37:47.011Z,9.85
2023-02-11T10:40:21.929Z,9.93
2023-02-11T10:42:55.551Z,9.60
2023-02-11T10:45:44.816Z,13.55
2023-02-11T10:48:47.048Z,12.77
2023-02-11T10:51:21.817Z,12.32
2023-02-11T10:54:19.991Z,11.37
2023-02-11T10:56:59.655Z,9.07
2023-02-11T10:59:28.278Z,13.20
2023-02-11T11:02:02.568Z,10.20
2023-02-11T11:04:46.588Z,13.68
2023-02-11T11:07:17.831Z,11.27
2023-02-11T11:09:55.943Z,10.48
2023-02-11T11:12:48.037Z,12.02
2023-02-11T11:15:29.114Z,11.38
2023-02-11T11:18:24.064Z,11.85
2023-02-11T11:21:01.745Z,10.37
2023-02-11T11:23:37.293Z,12.57
2023-02-11T11:26:16.040Z,11.73
2023-02-11T11:28:59.521Z,9.98
2023-02-11T11:31:49.327Z,11.38
2023-02-11T11:34:27.933Z,10.80
2023-02-11T11:36:58.663Z,10.82
2023-02-11T11:39:32.706Z,10.95
2023-02-11T11:42:06.274Z,11.95
2023-02-11T11:44:40.347Z,13.23
2023-02-11T11:47:23.214Z,11.93
2023-02-11T11:50:04.288Z,13.52
2023-02-11T11:52:46.683Z,9.48
2023-02-11T11:55:39.896Z,9.65
2023-02-11T11:58:19.645Z,12.18
2023-02-11T12:01:30.216Z,14.17
2023-02-11T12:04:19.803Z,11.10
2023-02-11T12:06:59.894Z,12.20
2023-02-11T12:09:33.313Z,13.15
2023-02-11T12:12:16.469Z,10.93
2023-02-11T12:15:00.344Z,19.03
2023-02-11T12:17:49.269Z,9.75
2023-02-11T12:20:26.527Z,13.85
2023-02-11T12:23:21.921Z,16.30
2023-02-11T12:26:05.260Z,14.32
2023-02-11T12:29:01.213Z,13.40
2023-02-11T12:31:56.319Z,11.77
2023-02-11T12:34:27.031Z,12.43
2023-02-11T12:37:25.562Z,12.70
2023-02-11T12:40:35.136Z,15.25
2023-02-11T12:43:18.034Z,13.87
2023-02-11T12:45:58.784Z,14.20
2023-02-11T12:48:54.820Z,13.95
2023-02-11T12:51:32.661Z,12.80
2023-02-11T12:54:26.205Z,14.90
2023-02-11T12:57:02.943Z,11.93
2023-02-11T12:59:38.963Z,14.27
2023-02-11T13:02:20.993Z,14.60
2023-02-11T13:04:54.604Z,14.50
2023-02-11T13:07:35.426Z,12.88
2023-02-11T13:10:16.012Z,17.40
2023-02-11T13:13:07.922Z,13.88
2023-02-11T13:15:36.288Z,16.33
2023-02-11T13:18:35.955Z,13.32
2023-02-11T13:21:15.911Z,14.43
2023-02-11T13:24:24.981Z,16.70
2023-02-11T13:27:23.412Z,15.02
2023-02-11T13:30:25.551Z,12.45
2023-02-11T13:32:56.433Z,9.88
2023-02-11T13:35:37.932Z,11.07
2023-02-11T13:38:18.532Z,11.37
2023-02-11T13:40:58.163Z,9.30
2023-02-11T13:43:29.106Z,13.68
2023-02-11T13:46:23.292Z,10.45
2023-02-11T13:48:53.601Z,11.27
2023-02-11T13:51:48.703Z,14.00
2023-02-11T13:54:53.154Z,10.77
2023-02-11T13:57:21.106Z,13.38
2023-02-11T13:59:52.477Z,12.38
2023-02-11T14:02:55.058Z,11.55
2023-02-11T14:05:50.428Z,12.90
2023-02-11T14:08:44.150Z,10.23
2023-02-11T14:11:33.685Z,12.02
2023-02-11T14:14:15.214Z,10.88
2023-02-11T14:17:07.160Z,12.20
2023-02-11T14:19:35.433Z,9.83
2023-02-11T14:22:19.328Z,9.23
2023-02-11T14:25:03.078Z,11.77
2023-02-11T14:27:47.253Z,11.05
2023-02-11T14:30:51.391Z,11.60
2023-02-11T14:34:01.565Z,12.37
2023-02-11T14:36:55.623Z,14.02
2023-02-11T14:39:45.656Z,13.77
2023-02-11T14:42:23.217Z,12.50
2023-02-11T14:44:53.327Z,9.75
2023-02-11T14:47:36.433Z,11.20
2023-02-11T14:50:07.854Z,12.95
2023-02-11T14:52:39.274Z,15.05
2023-02-11T14:55:13.575Z,12.13
2023-02-11T14:57:45.187Z,11.48
2023-02-11T15:00:22.766Z,16.70
2023-02-11T15:02:51.093Z,13.27
2023-02-11T15:05:22.893Z,11.77
2023-02-11T15:07:54.998Z,13.90
2023-02-11T15:10:44.106Z,10.63
2023-02-11T15:13:21.624Z,15.17
2023-02-11T15:15:52.862Z,13.77
2023-02-11T15:18:25.559Z,11.07
2023-02-11T15:20:54.055Z,12.52
2023-02-11T15:23:27.805Z,11.10
2023-02-11T15:26:03.375Z,12.17
2023-02-11T15:28:36.076Z,10.82
2023-02-11T15:31:16.293Z,10.35
2023-02-11T15:33:44.969Z,12.52
2023-02-11T15:36:14.095Z,9.65
2023-02-11T15:38:42.615Z,10.27
2023-02-11T15:41:35.914Z,9.95
2023-02-11T15:44:04.791Z,10.50
2023-02-11T15:46:40.447Z,9.77
2023-02-11T15:49:19.746Z,11.38
2023-02-11T15:51:48.179Z,9.10
2023-02-11T15:54:22.851Z,10.20
2023-02-11T15:56:55.776Z,10.80
2023-02-11T15:59:41.466Z,10.65
2023-02-11T16:02:22.528Z,12.88
2023-02-11T16:05:10.183Z,9.90
2023-02-11T16:07:43.528Z,12.73
2023-02-11T16:10:25.148Z,11.70
2023-02-11T16:13:02.136Z,12.40
2023-02-11T16:15:42.637Z,8.15
2023-02-11T16:18:37.655Z,11.40
2023-02-11T16:21:17.370Z,11.63
2023-02-11T16:23:58.021Z,11.55
2023-02-11T16:26:29.547Z,14.10
2023-02-11T16:29:12.071Z,16.90
2023-02-11T16:31:43.598Z,16.67
2023-02-11T16:34:25.339Z,18.83
2023-02-11T16:36:54.002Z,21.17
2023-02-11T16:39:22.738Z,15.25
2023-02-11T16:41:52.194Z,17.40
2023-02-11T16:44:20.857Z,15.70
2023-02-11T16:46:49.283Z,15.02
2023-02-11T16:49:31.770Z,17.77
2023-02-11T16:52:02.781Z,15.98
2023-02-11T16:54:31.453Z,15.77
2023-02-11T16:56:59.361Z,17.53
2023-02-11T16:59:27.359Z,13.75
2023-02-11T17:01:55.856Z,14.63
2023-02-11T17:04:28.706Z,15.63
2023-02-11T17:06:58.496Z,17.20
2023-02-11T17:09:30.831Z,17.87
2023-02-11T17:11:59.474Z,18.60
2023-02-11T17:14:27.307Z,18.02
2023-02-11T17:16:55.482Z,16.48
2023-02-11T17:19:23.360Z,18.33
2023-02-11T17:21:53.702Z,17.77
2023-02-11T17:24:22.933Z,18.05
2023-02-11T17:26:51.485Z,23.58
2023-02-11T17:29:22.392Z,24.95
2023-02-11T17:31:52.405Z,27.05
2023-02-11T17:34:21.970Z,23.53
2023-02-11T17:36:51.022Z,26.83
2023-02-11T17:39:21.402Z,28.00
2023-02-11T17:41:49.423Z,32.55
2023-02-11T17:44:17.452Z,29.83
2023-02-11T17:46:45.607Z,26.23
2023-02-11T17:49:13.444Z,26.15
2023-02-11T17:51:41.620Z,28.08
2023-02-11T17:54:17.286Z,28.00
2023-02-11T17:56:49.330Z,31.05
2023-02-11T17:59:18.547Z,35.37
2023-02-11T18:01:47.616Z,43.20
2023-02-11T18:04:19.327Z,47.08
2023-02-11T18:06:47.899Z,40.00
2023-02-11T18:09:15.755Z,36.20
2023-02-11T18:11:43.885Z,35.40
2023-02-11T18:14:12.474Z,37.42
2023-02-11T18:16:43.399Z,33.78
2023-02-11T18:19:12.785Z,36.00
2023-02-11T18:21:41.294Z,28.80
2023-02-11T18:24:09.317Z,33.93
2023-02-11T18:26:37.554Z,33.10
2023-02-11T18:29:07.296Z,33.78
2023-02-11T18:31:36.789Z,35.10
2023-02-11T18:34:07.918Z,35.30
2023-02-11T18:36:36.283Z,30.97
2023-02-11T18:39:06.145Z,32.80
2023-02-11T18:41:34.639Z,34.65
2023-02-11T18:44:03.538Z,33.70
2023-02-11T18:46:31.896Z,32.13
2023-02-11T18:48:59.925Z,32.53
2023-02-11T18:51:28.433Z,31.55
2023-02-11T18:53:56.416Z,28.73
2023-02-11T18:56:26.469Z,28.52
2023-02-11T18:58:56.491Z,30.77
2023-02-11T19:01:27.959Z,37.27
2023-02-11T19:03:57.799Z,31.00
2023-02-11T19:06:28.311Z,32.25
2023-02-11T19:09:00.043Z,30.85
2023-02-11T19:11:52.894Z,27.65
2023-02-11T19:14:26.222Z,27.67
2023-02-11T19:16:57.520Z,32.80
2023-02-11T19:19:28.671Z,31.48
2023-02-11T19:21:58.489Z,33.03
2023-02-11T19:24:27.336Z,55.42
2023-02-11T19:26:59.077Z,65.37
2023-02-11T19:29:27.462Z,45.03
2023-02-11T19:31:56.093Z,40.53
2023-02-11T19:34:24.749Z,39.65
2023-02-11T19:36:54.511Z,42.25
2023-02-11T19:39:25.086Z,39.47
2023-02-11T19:41:54.286Z,32.88
2023-02-11T19:44:22.296Z,36.33
2023-02-11T19:46:53.638Z,40.08
2023-02-11T19:49:26.247Z,33.97
2023-02-11T19:51:58.073Z,33.33
2023-02-11T19:54:27.342Z,33.50
2023-02-11T19:56:55.453Z,35.95
2023-02-11T19:59:24.140Z,38.20
2023-02-11T20:01:53.509Z,41.10
2023-02-11T20:04:21.855Z,40.22
2023-02-11T20:06:49.954Z,37.07
2023-02-11T20:09:17.913Z,36.65
2023-02-11T20:11:45.679Z,39.10
2023-02-11T20:14:15.647Z,42.08
2023-02-11T20:16:48.755Z,43.58
2023-02-11T20:19:20.437Z,48.93
2023-02-11T20:21:52.319Z,50.42
2023-02-11T20:24:21.126Z,51.92
2023-02-11T20:26:49.616Z,49.13
2023-02-11T20:29:18.898Z,44.30
2023-02-11T20:31:47.132Z,42.88
2023-02-11T20:34:17.377Z,41.93
2023-02-11T20:36:52.446Z,37.42
2023-02-11T20:39:22.682Z,46.83
2023-02-11T20:41:51.682Z,39.20
2023-02-11T20:44:23.450Z,39.63
2023-02-11T20:46:54.622Z,40.30
2023-02-11T20:49:24.918Z,40.65
2023-02-11T20:51:54.353Z,41.42
2023-02-11T20:54:24.284Z,46.47
2023-02-11T20:56:54.220Z,51.60
2023-02-11T20:59:23.162Z,54.30
2023-02-11T21:01:55.996Z,49.83
2023-02-11T21:04:30.194Z,47.15
2023-02-11T21:07:00.994Z,50.55
2023-02-11T21:09:32.538Z,47.92
2023-02-11T21:12:01.074Z,44.27
2023-02-11T21:14:29.742Z,41.60
2023-02-11T21:16:58.583Z,41.90
2023-02-11T21:19:27.068Z,39.97
2023-02-11T21:21:57.589Z,35.15
2023-02-11T21:24:25.885Z,38.63
2023-02-11T21:26:54.061Z,33.05
2023-02-11T21:29:22.091Z,34.80
2023-02-11T21:31:50.135Z,37.25
2023-02-11T21:34:18.397Z,33.90
2023-02-11T21:36:46.728Z,30.93
2023-02-11T21:39:14.965Z,30.92
2023-02-11T21:41:43.003Z,30.23
2023-02-11T21:44:10.980Z,29.90
2023-02-11T21:46:38.961Z,28.20
2023-02-11T21:49:07.051Z,31.20
2023-02-11T21:51:35.036Z,28.95
2023-02-11T21:54:06.642Z,26.83
2023-02-11T21:56:36.016Z,25.63
2023-02-11T21:59:04.335Z,23.65
2023-02-11T22:01:35.790Z,22.98
2023-02-11T22:04:04.133Z,24.20
2023-02-11T22:06:34.650Z,22.45
2023-02-11T22:09:07.595Z,25.90
2023-02-11T22:11:35.999Z,24.17
2023-02-11T22:14:04.385Z,21.23
2023-02-11T22:16:33.231Z,22.60
2023-02-11T22:19:02.909Z,21.08
2023-02-11T22:21:31.203Z,22.15
2023-02-11T22:23:59.225Z,20.40
2023-02-11T22:26:28.779Z,21.38
2023-02-11T22:28:57.225Z,21.50
2023-02-11T22:31:29.028Z,16.10
2023-02-11T22:33:57.563Z,22.95
2023-02-11T22:36:28.643Z,22.15
2023-02-11T22:39:00.329Z,20.92
2023-02-11T22:41:29.301Z,21.30
2023-02-11T22:43:57.377Z,21.52
2023-02-11T22:46:26.385Z,22.85
2023-02-11T22:48:54.431Z,24.75
2023-02-11T22:51:25.493Z,20.55
2023-02-11T22:53:55.902Z,20.73
2023-02-11T22:56:24.156Z,21.23
2023-02-11T22:58:53.615Z,22.38
2023-02-11T23:01:21.741Z,19.85
2023-02-11T23:03:49.617Z,19.58
2023-02-11T23:06:18.291Z,20.07
2023-02-11T23:08:46.728Z,20.92
2023-02-11T23:11:21.007Z,25.77
2023-02-11T23:13:50.964Z,20.95
2023-02-11T23:16:24.789Z,21.63
2023-02-11T23:18:55.352Z,17.73
2023-02-11T23:21:26.460Z,16.92
2023-02-11T23:23:56.668Z,17.48
2023-02-11T23:26:25.183Z,17.15
2023-02-11T23:28:53.433Z,17.98
2023-02-11T23:31:24.823Z,20.40
2023-02-11T23:33:53.727Z,19.23
2023-02-11T23:36:22.878Z,17.87
2023-02-11T23:38:51.901Z,16.67
2023-02-11T23:41:20.873Z,18.27
2023-02-11T23:43:54.964Z,20.25
2023-02-11T23:46:24.305Z,18.02
2023-02-11T23:48:52.933Z,19.10
2023-02-11T23:51:22.281Z,20.88
2023-02-11T23:53:51.224Z,16.83
2023-02-11T23:56:23.269Z,16.73
2023-02-11T23:58:53.835Z,17.95
